sensor_id;sensor_type;location;lat;lon;timestamp;pressure;altitude;pressure_sealevel;temperature;humidity
56038;BME280;41907;47.848;9.000;2023-02-12T00:02:15;97590.06;;;-1.30;100.00
56038;BME280;41907;47.848;9.000;2023-02-12T00:04:41;97591.25;;;-1.32;100.00
56038;BME280;41907;47.848;9.000;2023-02-12T00:07:06;97584.63;;;-1.28;100.00
56038;BME280;41907;47.848;9.000;2023-02-12T00:09:32;97588.94;;;-1.21;100.00
56038;BME280;41907;47.848;9.000;2023-02-12T00:11:57;97579.72;;;-1.17;100.00
56038;BME280;41907;47.848;9.000;2023-02-12T00:14:22;97583.81;;;-1.07;100.00
56038;BME280;41907;47.848;9.000;2023-02-12T00:16:48;97590.00;;;-1.15;100.00
56038;BME280;41907;47.848;9.000;2023-02-12T00:19:13;97575.53;;;-1.11;100.00
56038;BME280;41907;47.848;9.000;2023-02-12T00:21:38;97577.28;;;-0.97;100.00
56038;BME280;41907;47.848;9.000;2023-02-12T00:24:04;97576.50;;;-0.91;100.00
56038;BME280;41907;47.848;9.000;2023-02-12T00:26:29;97580.13;;;-0.92;100.00
56038;BME280;41907;47.848;9.000;2023-02-12T00:28:55;97579.06;;;-0.97;100.00
56038;BME280;41907;47.848;9.000;2023-02-12T00:31:23;97576.88;;;-0.94;100.00
56038;BME280;41907;47.848;9.000;2023-02-12T00:33:48;97580.94;;;-0.91;100.00
56038;BME280;41907;47.848;9.000;2023-02-12T00:36:17;97583.38;;;-0.90;100.00
56038;BME280;41907;47.848;9.000;2023-02-12T00:38:43;97588.78;;;-0.91;100.00
56038;BME280;41907;47.848;9.000;2023-02-12T00:41:09;97595.03;;;-0.92;100.00
56038;BME280;41907;47.848;9.000;2023-02-12T00:43:34;97587.75;;;-0.97;100.00
56038;BME280;41907;47.848;9.000;2023-02-12T00:46:00;97588.97;;;-0.93;100.00
56038;BME280;41907;47.848;9.000;2023-02-12T00:48:25;97593.41;;;-0.93;100.00
56038;BME280;41907;47.848;9.000;2023-02-12T00:50:51;97599.63;;;-0.94;100.00
56038;BME280;41907;47.848;9.000;2023-02-12T00:53:16;97598.44;;;-0.92;100.00
56038;BME280;41907;47.848;9.000;2023-02-12T00:55:42;97592.41;;;-0.92;100.00
56038;BME280;41907;47.848;9.000;2023-02-12T00:58:08;97594.84;;;-0.91;100.00
56038;BME280;41907;47.848;9.000;2023-02-12T01:00:33;97590.41;;;-0.90;100.00
56038;BME280;41907;47.848;9.000;2023-02-12T01:02:59;97582.91;;;-0.93;100.00
56038;BME280;41907;47.848;9.000;2023-02-12T01:05:24;97575.66;;;-0.98;100.00
56038;BME280;41907;47.848;9.000;2023-02-12T01:07:51;97578.59;;;-1.07;100.00
56038;BME280;41907;47.848;9.000;2023-02-12T01:10:17;97589.63;;;-1.12;100.00
56038;BME280;41907;47.848;9.000;2023-02-12T01:12:42;97587.22;;;-1.14;100.00
56038;BME280;41907;47.848;9.000;2023-02-12T01:15:08;97581.75;;;-1.12;100.00
56038;BME280;41907;47.848;9.000;2023-02-12T01:17:37;97586.81;;;-1.32;100.00
56038;BME280;41907;47.848;9.000;2023-02-12T01:20:04;97591.31;;;-1.47;100.00
56038;BME280;41907;47.848;9.000;2023-02-12T01:22:33;97585.06;;;-1.46;100.00
56038;BME280;41907;47.848;9.000;2023-02-12T01:24:58;97585.56;;;-1.57;100.00
56038;BME280;41907;47.848;9.000;2023-02-12T01:27:23;97584.69;;;-1.64;100.00
56038;BME280;41907;47.848;9.000;2023-02-12T01:29:49;97584.22;;;-1.68;100.00
56038;BME280;41907;47.848;9.000;2023-02-12T01:32:14;97588.34;;;-1.80;100.00
56038;BME280;41907;47.848;9.000;2023-02-12T01:34:39;97589.50;;;-1.82;100.00
56038;BME280;41907;47.848;9.000;2023-02-12T01:37:05;97595.84;;;-1.92;100.00
56038;BME280;41907;47.848;9.000;2023-02-12T01:39:30;97591.31;;;-1.98;100.00
56038;BME280;41907;47.848;9.000;2023-02-12T01:41:55;97590.25;;;-2.03;100.00
56038;BME280;41907;47.848;9.000;2023-02-12T01:44:23;97586.94;;;-2.12;100.00
56038;BME280;41907;47.848;9.000;2023-02-12T01:46:55;97583.59;;;-2.06;100.00
56038;BME280;41907;47.848;9.000;2023-02-12T01:49:42;97587.81;;;-1.90;100.00
56038;BME280;41907;47.848;9.000;2023-02-12T01:54:37;97598.97;;;-1.81;100.00
56038;BME280;41907;47.848;9.000;2023-02-12T01:57:04;97586.91;;;-1.82;100.00
56038;BME280;41907;47.848;9.000;2023-02-12T01:59:31;97581.09;;;-1.78;100.00
56038;BME280;41907;47.848;9.000;2023-02-12T02:01:58;97582.19;;;-1.72;100.00
56038;BME280;41907;47.848;9.000;2023-02-12T02:04:26;97569.06;;;-1.58;100.00
56038;BME280;41907;47.848;9.000;2023-02-12T02:06:58;97570.31;;;-1.54;100.00
56038;BME280;41907;47.848;9.000;2023-02-12T02:09:26;97577.66;;;-1.64;100.00
56038;BME280;41907;47.848;9.000;2023-02-12T02:11:52;97573.56;;;-1.88;100.00
56038;BME280;41907;47.848;9.000;2023-02-12T02:14:37;97582.69;;;-1.98;100.00
56038;BME280;41907;47.848;9.000;2023-02-12T02:22:39;97572.72;;;-1.88;100.00
56038;BME280;41907;47.848;9.000;2023-02-12T02:28:00;97577.03;;;-1.66;100.00
56038;BME280;41907;47.848;9.000;2023-02-12T02:30:38;97568.69;;;-1.55;100.00
56038;BME280;41907;47.848;9.000;2023-02-12T02:36:24;97557.78;;;-1.79;100.00
56038;BME280;41907;47.848;9.000;2023-02-12T02:39:05;97557.63;;;-1.93;100.00
56038;BME280;41907;47.848;9.000;2023-02-12T02:41:34;97560.44;;;-2.09;100.00
56038;BME280;41907;47.848;9.000;2023-02-12T02:44:12;97553.31;;;-2.15;100.00
56038;BME280;41907;47.848;9.000;2023-02-12T02:46:43;97560.91;;;-2.20;100.00
56038;BME280;41907;47.848;9.000;2023-02-12T02:49:15;97561.00;;;-2.28;100.00
56038;BME280;41907;47.848;9.000;2023-02-12T02:51:44;97573.63;;;-2.32;100.00
56038;BME280;41907;47.848;9.000;2023-02-12T02:56:41;97567.31;;;-2.37;100.00
56038;BME280;41907;47.848;9.000;2023-02-12T02:59:11;97559.50;;;-2.37;100.00
56038;BME280;41907;47.848;9.000;2023-02-12T03:01:44;97560.56;;;-2.32;100.00
56038;BME280;41907;47.848;9.000;2023-02-12T03:04:18;97557.75;;;-2.30;100.00
56038;BME280;41907;47.848;9.000;2023-02-12T03:06:51;97566.06;;;-2.27;100.00
56038;BME280;41907;47.848;9.000;2023-02-12T03:09:22;97555.50;;;-2.18;100.00
56038;BME280;41907;47.848;9.000;2023-02-12T03:11:54;97556.22;;;-2.10;100.00
56038;BME280;41907;47.848;9.000;2023-02-12T03:14:25;97559.59;;;-1.95;100.00
56038;BME280;41907;47.848;9.000;2023-02-12T03:16:57;97560.94;;;-1.84;100.00
56038;BME280;41907;47.848;9.000;2023-02-12T03:19:27;97554.34;;;-1.80;100.00
56038;BME280;41907;47.848;9.000;2023-02-12T03:22:01;97556.72;;;-1.64;100.00
56038;BME280;41907;47.848;9.000;2023-02-12T03:24:32;97550.56;;;-1.56;100.00
56038;BME280;41907;47.848;9.000;2023-02-12T03:27:07;97551.25;;;-1.47;100.00
56038;BME280;41907;47.848;9.000;2023-02-12T03:29:33;97546.81;;;-1.47;100.00
56038;BME280;41907;47.848;9.000;2023-02-12T03:32:17;97552.06;;;-1.47;100.00
56038;BME280;41907;47.848;9.000;2023-02-12T03:34:52;97558.97;;;-1.39;100.00
56038;BME280;41907;47.848;9.000;2023-02-12T03:37:34;97554.13;;;-1.42;100.00
56038;BME280;41907;47.848;9.000;2023-02-12T03:40:15;97554.13;;;-1.42;100.00
56038;BME280;41907;47.848;9.000;2023-02-12T03:48:42;97560.56;;;-1.60;100.00
56038;BME280;41907;47.848;9.000;2023-02-12T03:51:31;97560.38;;;-1.58;100.00
56038;BME280;41907;47.848;9.000;2023-02-12T03:54:00;97567.81;;;-1.40;100.00
56038;BME280;41907;47.848;9.000;2023-02-12T03:58:57;97576.09;;;-1.37;100.00
56038;BME280;41907;47.848;9.000;2023-02-12T04:01:22;97581.31;;;-1.58;100.00
56038;BME280;41907;47.848;9.000;2023-02-12T04:03:48;97583.41;;;-1.90;100.00
56038;BME280;41907;47.848;9.000;2023-02-12T04:06:24;97577.25;;;-1.97;100.00
56038;BME280;41907;47.848;9.000;2023-02-12T04:08:51;97576.94;;;-2.08;100.00
56038;BME280;41907;47.848;9.000;2023-02-12T04:11:55;97581.78;;;-2.05;100.00
56038;BME280;41907;47.848;9.000;2023-02-12T04:16:59;97576.91;;;-1.94;100.00
56038;BME280;41907;47.848;9.000;2023-02-12T04:22:20;97576.94;;;-2.08;100.00
56038;BME280;41907;47.848;9.000;2023-02-12T04:30:43;97603.22;;;-1.95;100.00
56038;BME280;41907;47.848;9.000;2023-02-12T04:33:13;97604.78;;;-2.01;100.00
56038;BME280;41907;47.848;9.000;2023-02-12T04:35:47;97598.53;;;-1.85;100.00
56038;BME280;41907;47.848;9.000;2023-02-12T04:38:20;97601.44;;;-1.95;100.00
56038;BME280;41907;47.848;9.000;2023-02-12T04:40:47;97587.19;;;-2.07;100.00
56038;BME280;41907;47.848;9.000;2023-02-12T04:43:13;97596.47;;;-2.04;100.00
56038;BME280;41907;47.848;9.000;2023-02-12T04:45:39;97596.47;;;-2.04;100.00
56038;BME280;41907;47.848;9.000;2023-02-12T04:48:04;97595.84;;;-2.06;100.00
56038;BME280;41907;47.848;9.000;2023-02-12T04:50:51;97587.81;;;-2.05;100.00
56038;BME280;41907;47.848;9.000;2023-02-12T04:53:16;97587.13;;;-1.99;100.00
56038;BME280;41907;47.848;9.000;2023-02-12T04:55:41;97576.63;;;-1.84;100.00
56038;BME280;41907;47.848;9.000;2023-02-12T04:58:07;97593.28;;;-1.70;100.00
56038;BME280;41907;47.848;9.000;2023-02-12T05:00:32;97593.41;;;-1.57;100.00
56038;BME280;41907;47.848;9.000;2023-02-12T05:02:58;97589.69;;;-1.84;100.00
56038;BME280;41907;47.848;9.000;2023-02-12T05:05:24;97591.44;;;-1.91;100.00
56038;BME280;41907;47.848;9.000;2023-02-12T05:07:49;97584.69;;;-2.00;100.00
56038;BME280;41907;47.848;9.000;2023-02-12T05:10:15;97589.63;;;-2.05;100.00
56038;BME280;41907;47.848;9.000;2023-02-12T05:12:41;97580.16;;;-2.06;100.00
56038;BME280;41907;47.848;9.000;2023-02-12T05:15:06;97582.16;;;-2.08;100.00
56038;BME280;41907;47.848;9.000;2023-02-12T05:17:32;97579.19;;;-2.05;100.00
56038;BME280;41907;47.848;9.000;2023-02-12T05:19:57;97583.47;;;-1.98;100.00
56038;BME280;41907;47.848;9.000;2023-02-12T05:22:23;97586.56;;;-1.94;100.00
56038;BME280;41907;47.848;9.000;2023-02-12T05:24:48;97590.22;;;-1.89;100.00
56038;BME280;41907;47.848;9.000;2023-02-12T05:27:14;97587.72;;;-1.82;100.00
56038;BME280;41907;47.848;9.000;2023-02-12T05:29:39;97588.53;;;-1.81;100.00
56038;BME280;41907;47.848;9.000;2023-02-12T05:32:04;97590.22;;;-1.74;100.00
56038;BME280;41907;47.848;9.000;2023-02-12T05:34:31;97597.66;;;-1.56;100.00
56038;BME280;41907;47.848;9.000;2023-02-12T05:36:56;97585.81;;;-1.52;100.00
56038;BME280;41907;47.848;9.000;2023-02-12T05:39:22;97581.50;;;-1.60;100.00
56038;BME280;41907;47.848;9.000;2023-02-12T05:41:47;97584.31;;;-1.19;100.00
56038;BME280;41907;47.848;9.000;2023-02-12T05:44:13;97583.22;;;-0.82;100.00
56038;BME280;41907;47.848;9.000;2023-02-12T05:46:40;97591.25;;;-0.55;100.00
56038;BME280;41907;47.848;9.000;2023-02-12T05:49:06;97580.31;;;-0.93;100.00
56038;BME280;41907;47.848;9.000;2023-02-12T05:51:32;97575.19;;;-1.01;100.00
56038;BME280;41907;47.848;9.000;2023-02-12T05:53:59;97589.22;;;-0.88;100.00
56038;BME280;41907;47.848;9.000;2023-02-12T05:56:27;97585.97;;;-0.90;100.00
56038;BME280;41907;47.848;9.000;2023-02-12T05:58:57;97586.88;;;-1.04;100.00
56038;BME280;41907;47.848;9.000;2023-02-12T06:01:26;97582.84;;;-1.06;100.00
56038;BME280;41907;47.848;9.000;2023-02-12T06:03:52;97588.06;;;-1.06;100.00
56038;BME280;41907;47.848;9.000;2023-02-12T06:06:17;97580.03;;;-1.05;100.00
56038;BME280;41907;47.848;9.000;2023-02-12T06:08:46;97576.09;;;-1.16;100.00
56038;BME280;41907;47.848;9.000;2023-02-12T06:11:12;97582.16;;;-1.15;100.00
56038;BME280;41907;47.848;9.000;2023-02-12T06:13:38;97574.22;;;-1.00;100.00
56038;BME280;41907;47.848;9.000;2023-02-12T06:16:04;97575.72;;;-0.85;100.00
56038;BME280;41907;47.848;9.000;2023-02-12T06:18:29;97591.06;;;-0.82;100.00
56038;BME280;41907;47.848;9.000;2023-02-12T06:20:55;97591.03;;;-0.88;100.00
56038;BME280;41907;47.848;9.000;2023-02-12T06:23:23;97596.22;;;-0.95;100.00
56038;BME280;41907;47.848;9.000;2023-02-12T06:25:50;97588.28;;;-1.01;100.00
56038;BME280;41907;47.848;9.000;2023-02-12T06:28:15;97587.22;;;-1.14;100.00
56038;BME280;41907;47.848;9.000;2023-02-12T06:30:41;97591.09;;;-1.03;100.00
56038;BME280;41907;47.848;9.000;2023-02-12T06:33:07;97585.06;;;-1.03;100.00
56038;BME280;41907;47.848;9.000;2023-02-12T06:35:36;97589.97;;;-0.94;100.00
56038;BME280;41907;47.848;9.000;2023-02-12T06:38:01;97591.88;;;-0.81;100.00
56038;BME280;41907;47.848;9.000;2023-02-12T06:40:27;97587.78;;;-0.90;100.00
56038;BME280;41907;47.848;9.000;2023-02-12T06:42:52;97595.69;;;-0.84;100.00
56038;BME280;41907;47.848;9.000;2023-02-12T06:45:18;97590.53;;;-0.77;100.00
56038;BME280;41907;47.848;9.000;2023-02-12T06:47:43;97591.25;;;-0.83;100.00
56038;BME280;41907;47.848;9.000;2023-02-12T06:50:09;97592.84;;;-0.89;100.00
56038;BME280;41907;47.848;9.000;2023-02-12T06:52:34;97593.19;;;-0.70;100.00
56038;BME280;41907;47.848;9.000;2023-02-12T06:54:59;97608.94;;;-0.36;100.00
56038;BME280;41907;47.848;9.000;2023-02-12T06:57:25;97604.81;;;-0.17;100.00
56038;BME280;41907;47.848;9.000;2023-02-12T06:59:50;97610.56;;;-0.01;100.00
56038;BME280;41907;47.848;9.000;2023-02-12T07:02:15;97610.03;;;0.17;100.00
56038;BME280;41907;47.848;9.000;2023-02-12T07:04:41;97609.31;;;0.43;100.00
56038;BME280;41907;47.848;9.000;2023-02-12T07:07:06;97611.00;;;0.70;100.00
56038;BME280;41907;47.848;9.000;2023-02-12T07:09:32;97610.41;;;0.95;100.00
56038;BME280;41907;47.848;9.000;2023-02-12T07:11:58;97613.06;;;1.15;100.00
56038;BME280;41907;47.848;9.000;2023-02-12T07:14:23;97618.94;;;1.30;100.00
56038;BME280;41907;47.848;9.000;2023-02-12T07:16:50;97617.72;;;1.45;100.00
56038;BME280;41907;47.848;9.000;2023-02-12T07:19:16;97609.81;;;1.52;100.00
56038;BME280;41907;47.848;9.000;2023-02-12T07:21:42;97614.88;;;1.60;100.00
56038;BME280;41907;47.848;9.000;2023-02-12T07:24:09;97607.78;;;1.61;100.00
56038;BME280;41907;47.848;9.000;2023-02-12T07:26:36;97602.31;;;1.69;100.00
56038;BME280;41907;47.848;9.000;2023-02-12T07:29:03;97604.13;;;1.75;100.00
56038;BME280;41907;47.848;9.000;2023-02-12T07:31:28;97610.97;;;1.82;100.00
56038;BME280;41907;47.848;9.000;2023-02-12T07:33:55;97609.78;;;1.85;100.00
56038;BME280;41907;47.848;9.000;2023-02-12T07:36:22;97609.38;;;1.88;100.00
56038;BME280;41907;47.848;9.000;2023-02-12T07:38:48;97609.72;;;1.98;100.00
56038;BME280;41907;47.848;9.000;2023-02-12T07:41:18;97605.28;;;2.05;100.00
56038;BME280;41907;47.848;9.000;2023-02-12T07:43:44;97608.06;;;2.10;100.00
56038;BME280;41907;47.848;9.000;2023-02-12T07:46:18;97608.84;;;2.17;100.00
56038;BME280;41907;47.848;9.000;2023-02-12T07:48:45;97606.00;;;2.26;100.00
56038;BME280;41907;47.848;9.000;2023-02-12T07:51:14;97603.34;;;2.32;100.00
56038;BME280;41907;47.848;9.000;2023-02-12T07:53:40;97606.53;;;2.41;100.00
56038;BME280;41907;47.848;9.000;2023-02-12T07:56:13;97607.09;;;2.49;100.00
56038;BME280;41907;47.848;9.000;2023-02-12T07:58:40;97603.22;;;2.58;100.00
56038;BME280;41907;47.848;9.000;2023-02-12T08:04:07;97589.38;;;2.70;100.00
56038;BME280;41907;47.848;9.000;2023-02-12T08:06:35;97590.34;;;2.75;100.00
56038;BME280;41907;47.848;9.000;2023-02-12T08:09:03;97592.31;;;2.86;100.00
56038;BME280;41907;47.848;9.000;2023-02-12T08:11:30;97586.97;;;2.93;100.00
56038;BME280;41907;47.848;9.000;2023-02-12T08:13:56;97586.75;;;3.01;100.00
56038;BME280;41907;47.848;9.000;2023-02-12T08:16:24;97590.56;;;3.05;100.00
56038;BME280;41907;47.848;9.000;2023-02-12T08:18:50;97592.06;;;3.19;100.00
56038;BME280;41907;47.848;9.000;2023-02-12T08:21:18;97583.38;;;3.19;100.00
56038;BME280;41907;47.848;9.000;2023-02-12T08:23:44;97587.44;;;3.15;100.00
56038;BME280;41907;47.848;9.000;2023-02-12T08:26:16;97588.84;;;3.17;100.00
56038;BME280;41907;47.848;9.000;2023-02-12T08:28:50;97593.25;;;3.23;100.00
56038;BME280;41907;47.848;9.000;2023-02-12T08:31:19;97589.91;;;3.34;100.00
56038;BME280;41907;47.848;9.000;2023-02-12T08:33:45;97601.00;;;3.43;100.00
56038;BME280;41907;47.848;9.000;2023-02-12T08:36:14;97601.22;;;3.42;100.00
56038;BME280;41907;47.848;9.000;2023-02-12T08:38:41;97595.94;;;3.42;100.00
56038;BME280;41907;47.848;9.000;2023-02-12T08:41:11;97594.78;;;3.38;100.00
56038;BME280;41907;47.848;9.000;2023-02-12T08:43:38;97595.13;;;3.41;100.00
56038;BME280;41907;47.848;9.000;2023-02-12T08:46:12;97596.16;;;3.40;100.00
56038;BME280;41907;47.848;9.000;2023-02-12T08:48:40;97592.94;;;3.38;100.00
56038;BME280;41907;47.848;9.000;2023-02-12T08:51:14;97590.94;;;3.33;100.00
56038;BME280;41907;47.848;9.000;2023-02-12T08:53:42;97599.16;;;3.44;100.00
56038;BME280;41907;47.848;9.000;2023-02-12T08:56:09;97593.34;;;3.35;100.00
56038;BME280;41907;47.848;9.000;2023-02-12T08:58:35;97598.84;;;3.33;100.00
56038;BME280;41907;47.848;9.000;2023-02-12T09:01:02;97598.44;;;3.36;100.00
56038;BME280;41907;47.848;9.000;2023-02-12T09:03:28;97599.66;;;3.34;100.00
56038;BME280;41907;47.848;9.000;2023-02-12T09:05:54;97600.63;;;3.40;100.00
56038;BME280;41907;47.848;9.000;2023-02-12T09:08:19;97597.56;;;3.43;100.00
56038;BME280;41907;47.848;9.000;2023-02-12T09:10:45;97605.41;;;3.49;100.00
56038;BME280;41907;47.848;9.000;2023-02-12T09:13:12;97600.78;;;3.45;100.00
56038;BME280;41907;47.848;9.000;2023-02-12T09:15:40;97597.72;;;3.48;100.00
56038;BME280;41907;47.848;9.000;2023-02-12T09:18:05;97602.34;;;3.52;100.00
56038;BME280;41907;47.848;9.000;2023-02-12T09:20:31;97592.00;;;3.51;100.00
56038;BME280;41907;47.848;9.000;2023-02-12T09:22:58;97591.06;;;3.63;100.00
56038;BME280;41907;47.848;9.000;2023-02-12T09:25:24;97579.94;;;3.61;100.00
56038;BME280;41907;47.848;9.000;2023-02-12T09:27:50;97577.00;;;3.69;100.00
56038;BME280;41907;47.848;9.000;2023-02-12T09:30:16;97582.75;;;3.85;100.00
56038;BME280;41907;47.848;9.000;2023-02-12T09:32:41;97583.09;;;3.88;100.00
56038;BME280;41907;47.848;9.000;2023-02-12T09:35:06;97581.06;;;4.08;100.00
56038;BME280;41907;47.848;9.000;2023-02-12T09:37:32;97564.38;;;4.26;100.00
56038;BME280;41907;47.848;9.000;2023-02-12T09:39:57;97564.28;;;4.51;100.00
56038;BME280;41907;47.848;9.000;2023-02-12T09:42:41;97558.69;;;4.59;100.00
56038;BME280;41907;47.848;9.000;2023-02-12T09:45:19;97559.22;;;4.49;100.00
56038;BME280;41907;47.848;9.000;2023-02-12T09:50:52;97557.53;;;4.97;100.00
56038;BME280;41907;47.848;9.000;2023-02-12T09:53:22;97556.84;;;5.13;100.00
56038;BME280;41907;47.848;9.000;2023-02-12T09:55:48;97558.47;;;5.14;100.00
56038;BME280;41907;47.848;9.000;2023-02-12T09:58:19;97554.22;;;5.24;100.00
56038;BME280;41907;47.848;9.000;2023-02-12T10:00:47;97555.72;;;5.20;100.00
56038;BME280;41907;47.848;9.000;2023-02-12T10:03:15;97559.16;;;5.09;100.00
56038;BME280;41907;47.848;9.000;2023-02-12T10:05:50;97556.50;;;4.98;100.00
56038;BME280;41907;47.848;9.000;2023-02-12T10:08:34;97558.88;;;4.88;100.00
56038;BME280;41907;47.848;9.000;2023-02-12T10:11:35;97561.84;;;4.79;100.00
56038;BME280;41907;47.848;9.000;2023-02-12T10:17:24;97567.47;;;4.71;100.00
56038;BME280;41907;47.848;9.000;2023-02-12T10:20:33;97555.28;;;4.70;100.00
56038;BME280;41907;47.848;9.000;2023-02-12T10:23:12;97554.53;;;4.63;100.00
56038;BME280;41907;47.848;9.000;2023-02-12T10:25:56;97564.81;;;4.71;100.00
56038;BME280;41907;47.848;9.000;2023-02-12T10:28:32;97559.66;;;4.76;100.00
56038;BME280;41907;47.848;9.000;2023-02-12T10:31:01;97559.53;;;4.71;100.00
56038;BME280;41907;47.848;9.000;2023-02-12T10:33:36;97551.28;;;4.91;100.00
56038;BME280;41907;47.848;9.000;2023-02-12T10:38:38;97568.81;;;5.15;100.00
56038;BME280;41907;47.848;9.000;2023-02-12T10:41:04;97560.00;;;5.56;100.00
56038;BME280;41907;47.848;9.000;2023-02-12T10:43:29;97558.50;;;5.60;100.00
56038;BME280;41907;47.848;9.000;2023-02-12T10:45:55;97559.88;;;5.75;100.00
56038;BME280;41907;47.848;9.000;2023-02-12T10:48:30;97551.00;;;5.81;100.00
56038;BME280;41907;47.848;9.000;2023-02-12T10:56:23;97545.72;;;5.57;100.00
56038;BME280;41907;47.848;9.000;2023-02-12T11:01:27;97546.47;;;6.05;100.00
56038;BME280;41907;47.848;9.000;2023-02-12T11:03:55;97548.81;;;6.01;100.00
56038;BME280;41907;47.848;9.000;2023-02-12T11:06:27;97536.19;;;6.31;100.00
56038;BME280;41907;47.848;9.000;2023-02-12T11:08:53;97538.00;;;6.03;100.00
56038;BME280;41907;47.848;9.000;2023-02-12T11:11:22;97534.53;;;5.90;100.00
56038;BME280;41907;47.848;9.000;2023-02-12T11:14:05;97532.78;;;6.08;100.00
56038;BME280;41907;47.848;9.000;2023-02-12T11:16:33;97536.63;;;6.28;100.00
56038;BME280;41907;47.848;9.000;2023-02-12T11:19:01;97521.34;;;6.19;100.00
56038;BME280;41907;47.848;9.000;2023-02-12T11:21:28;97519.88;;;6.11;100.00
56038;BME280;41907;47.848;9.000;2023-02-12T11:23:53;97515.06;;;6.37;100.00
56038;BME280;41907;47.848;9.000;2023-02-12T11:31:26;97521.44;;;6.24;100.00
56038;BME280;41907;47.848;9.000;2023-02-12T11:34:13;97514.25;;;6.36;100.00
56038;BME280;41907;47.848;9.000;2023-02-12T11:36:45;97506.66;;;6.56;100.00
56038;BME280;41907;47.848;9.000;2023-02-12T11:39:27;97501.31;;;6.85;100.00
56038;BME280;41907;47.848;9.000;2023-02-12T11:41:55;97501.72;;;6.60;100.00
56038;BME280;41907;47.848;9.000;2023-02-12T11:44:35;97503.97;;;6.68;100.00
56038;BME280;41907;47.848;9.000;2023-02-12T11:47:03;97501.50;;;7.12;98.76
56038;BME280;41907;47.848;9.000;2023-02-12T11:49:37;97501.66;;;7.05;99.18
56038;BME280;41907;47.848;9.000;2023-02-12T11:52:04;97496.63;;;7.42;98.02
56038;BME280;41907;47.848;9.000;2023-02-12T11:54:37;97488.47;;;7.87;96.04
56038;BME280;41907;47.848;9.000;2023-02-12T11:57:04;97483.28;;;9.00;90.67
56038;BME280;41907;47.848;9.000;2023-02-12T11:59:35;97479.47;;;8.90;87.17
56038;BME280;41907;47.848;9.000;2023-02-12T12:04:39;97481.13;;;10.53;79.13
56038;BME280;41907;47.848;9.000;2023-02-12T12:07:42;97473.41;;;9.84;78.32
56038;BME280;41907;47.848;9.000;2023-02-12T12:10:16;97467.56;;;9.87;80.48
56038;BME280;41907;47.848;9.000;2023-02-12T12:12:50;97467.19;;;9.21;81.64
56038;BME280;41907;47.848;9.000;2023-02-12T12:21:25;97474.41;;;8.57;86.73
56038;BME280;41907;47.848;9.000;2023-02-12T12:23:57;97468.66;;;9.02;84.92
56038;BME280;41907;47.848;9.000;2023-02-12T12:26:26;97466.78;;;9.40;82.61
56038;BME280;41907;47.848;9.000;2023-02-12T12:28:58;97470.75;;;9.32;81.66
56038;BME280;41907;47.848;9.000;2023-02-12T12:31:38;97461.69;;;8.96;83.95
56038;BME280;41907;47.848;9.000;2023-02-12T12:34:11;97466.41;;;9.26;82.27
56038;BME280;41907;47.848;9.000;2023-02-12T12:48:09;97455.16;;;8.77;84.21
56038;BME280;41907;47.848;9.000;2023-02-12T12:55:37;97445.03;;;8.79;85.94
56038;BME280;41907;47.848;9.000;2023-02-12T13:09:39;97428.66;;;8.92;86.46
56038;BME280;41907;47.848;9.000;2023-02-12T13:12:39;97441.34;;;8.80;86.42
56038;BME280;41907;47.848;9.000;2023-02-12T13:15:16;97427.88;;;8.96;86.55
56038;BME280;41907;47.848;9.000;2023-02-12T13:26:30;97429.06;;;8.74;88.05
56038;BME280;41907;47.848;9.000;2023-02-12T13:29:10;97418.03;;;8.60;88.72
56038;BME280;41907;47.848;9.000;2023-02-12T13:31:46;97426.78;;;8.55;89.37
56038;BME280;41907;47.848;9.000;2023-02-12T13:34:14;97416.50;;;8.37;89.71
56038;BME280;41907;47.848;9.000;2023-02-12T13:36:42;97424.84;;;8.46;90.61
56038;BME280;41907;47.848;9.000;2023-02-12T13:42:02;97427.03;;;8.54;89.68
56038;BME280;41907;47.848;9.000;2023-02-12T13:44:58;97427.13;;;8.64;89.42
56038;BME280;41907;47.848;9.000;2023-02-12T13:47:46;97426.69;;;8.45;90.55
56038;BME280;41907;47.848;9.000;2023-02-12T13:52:57;97428.44;;;8.13;92.73
56038;BME280;41907;47.848;9.000;2023-02-12T13:55:25;97428.72;;;8.11;93.06
56038;BME280;41907;47.848;9.000;2023-02-12T14:03:23;97429.22;;;7.87;94.92
56038;BME280;41907;47.848;9.000;2023-02-12T14:08:39;97432.16;;;7.63;96.45
56038;BME280;41907;47.848;9.000;2023-02-12T14:11:16;97426.47;;;7.55;97.10
56038;BME280;41907;47.848;9.000;2023-02-12T14:13:57;97423.41;;;7.46;98.25
56038;BME280;41907;47.848;9.000;2023-02-12T14:24:54;97429.09;;;7.33;99.85
56038;BME280;41907;47.848;9.000;2023-02-12T14:35:42;97416.53;;;6.90;100.00
56038;BME280;41907;47.848;9.000;2023-02-12T14:40:38;97416.63;;;6.78;100.00
56038;BME280;41907;47.848;9.000;2023-02-12T14:43:34;97412.94;;;6.79;100.00
56038;BME280;41907;47.848;9.000;2023-02-12T14:48:55;97422.56;;;6.85;100.00
56038;BME280;41907;47.848;9.000;2023-02-12T14:51:29;97422.56;;;6.85;100.00
56038;BME280;41907;47.848;9.000;2023-02-12T14:53:58;97423.47;;;6.57;100.00
56038;BME280;41907;47.848;9.000;2023-02-12T14:56:25;97426.22;;;6.34;100.00
56038;BME280;41907;47.848;9.000;2023-02-12T14:58:52;97426.84;;;6.24;100.00
56038;BME280;41907;47.848;9.000;2023-02-12T15:01:32;97426.13;;;6.12;100.00
56038;BME280;41907;47.848;9.000;2023-02-12T15:04:03;97424.19;;;6.08;100.00
56038;BME280;41907;47.848;9.000;2023-02-12T15:06:40;97426.38;;;6.27;100.00
56038;BME280;41907;47.848;9.000;2023-02-12T15:09:41;97421.16;;;6.32;100.00
56038;BME280;41907;47.848;9.000;2023-02-12T15:12:16;97417.56;;;6.22;100.00
56038;BME280;41907;47.848;9.000;2023-02-12T15:15:03;97424.59;;;6.16;100.00
56038;BME280;41907;47.848;9.000;2023-02-12T15:17:31;97426.25;;;6.06;100.00
56038;BME280;41907;47.848;9.000;2023-02-12T15:20:07;97431.28;;;5.90;100.00
56038;BME280;41907;47.848;9.000;2023-02-12T15:22:41;97437.00;;;5.87;100.00
56038;BME280;41907;47.848;9.000;2023-02-12T15:25:26;97440.03;;;5.91;100.00
56038;BME280;41907;47.848;9.000;2023-02-12T15:28:23;97437.69;;;5.94;100.00
56038;BME280;41907;47.848;9.000;2023-02-12T15:30:51;97444.94;;;5.99;100.00
56038;BME280;41907;47.848;9.000;2023-02-12T15:33:25;97444.97;;;6.16;100.00